createdAt,value
2019-04-20T00:00:41.695Z,10.80
2019-04-20T00:03:07.740Z,10.80
2019-04-20T00:05:37.199Z,10.90
2019-04-20T00:08:08.928Z,11.00
2019-04-20T00:10:48.618Z,11.00
2019-04-20T00:13:19.402Z,11.10
2019-04-20T00:15:36.913Z,11.00
2019-04-20T00:18:08.133Z,11.00
2019-04-20T00:20:39.060Z,11.00
2019-04-20T00:23:19.756Z,10.90
2019-04-20T00:25:58.546Z,10.90
2019-04-20T00:28:33.377Z,10.90
2019-04-20T00:31:04.223Z,11.00
2019-04-20T00:33:34.960Z,11.00
2019-04-20T00:35:46.366Z,11.00
2019-04-20T00:38:16.032Z,11.00
2019-04-20T00:40:45.493Z,11.00
2019-04-20T00:43:24.484Z,11.00
2019-04-20T00:45:51.636Z,11.00
2019-04-20T00:48:25.092Z,11.00
2019-04-20T00:51:00.943Z,10.90
2019-04-20T00:53:22.650Z,10.80
2019-04-20T00:55:46.332Z,10.80
2019-04-20T00:58:23.375Z,10.80
2019-04-20T01:01:07.296Z,10.80
2019-04-20T01:03:27.657Z,10.70
2019-04-20T01:06:11.095Z,10.70
2019-04-20T01:08:38.524Z,10.60
2019-04-20T01:11:08.197Z,10.70
2019-04-20T01:13:46.058Z,10.60
2019-04-20T01:16:18.546Z,10.60
2019-04-20T01:18:37.939Z,10.60
2019-04-20T01:21:14.874Z,10.60
2019-04-20T01:23:44.276Z,10.60
2019-04-20T01:26:11.459Z,10.60
2019-04-20T01:28:51.104Z,10.50
2019-04-20T01:31:19.859Z,10.50
2019-04-20T01:33:49.183Z,10.50
2019-04-20T01:36:29.638Z,10.50
2019-04-20T01:38:55.445Z,10.40
2019-04-20T01:41:09.609Z,10.30
2019-04-20T01:43:39.414Z,10.40
2019-04-20T01:46:15.098Z,10.40
2019-04-20T01:48:41.331Z,10.40
2019-04-20T01:51:14.100Z,10.40
2019-04-20T01:54:02.127Z,10.30
2019-04-20T01:56:31.623Z,10.30
2019-04-20T01:59:05.998Z,10.40
2019-04-20T02:01:28.050Z,10.40
2019-04-20T02:03:57.477Z,10.40
2019-04-20T02:06:29.162Z,10.40
2019-04-20T02:09:03.341Z,10.40
2019-04-20T02:11:34.469Z,10.40
2019-04-20T02:14:02.273Z,10.30
2019-04-20T02:16:35.703Z,10.30
2019-04-20T02:19:13.577Z,10.40
2019-04-20T02:21:47.604Z,10.30
2019-04-20T02:24:02.646Z,10.30
2019-04-20T02:26:30.250Z,10.30
2019-04-20T02:29:29.147Z,10.30
2019-04-20T02:34:39.387Z,10.30
2019-04-20T02:37:24.557Z,10.20
2019-04-20T02:39:45.344Z,10.20
2019-04-20T02:47:14.722Z,10.00
2019-04-20T02:49:48.695Z,10.10
2019-04-20T02:52:12.836Z,10.10
2019-04-20T02:54:36.986Z,10.10
2019-04-20T02:57:18.092Z,10.00
2019-04-20T03:01:59.268Z,9.90
2019-04-20T03:04:23.330Z,9.80
2019-04-20T03:07:01.057Z,9.80
2019-04-20T03:09:36.839Z,9.70
2019-04-20T03:12:23.823Z,9.70
2019-04-20T03:14:26.638Z,9.80
2019-04-20T03:17:08.582Z,9.70
2019-04-20T03:19:28.626Z,9.60
2019-04-20T03:22:09.807Z,9.50
2019-04-20T03:24:38.825Z,9.40
2019-04-20T03:27:07.461Z,9.50
2019-04-20T03:29:51.001Z,9.60
2019-04-20T03:33:00.111Z,9.60
2019-04-20T03:37:28.039Z,9.60
2019-04-20T03:39:46.789Z,9.70
2019-04-20T03:42:00.920Z,9.80
2019-04-20T03:44:32.529Z,9.70
2019-04-20T03:47:05.431Z,9.70
2019-04-20T03:49:54.857Z,9.70
2019-04-20T03:52:36.726Z,9.70
2019-04-20T03:55:16.105Z,9.80
2019-04-20T03:57:57.524Z,9.80
2019-04-20T04:00:43.302Z,9.80
2019-04-20T04:03:43.758Z,9.70
2019-04-20T04:05:50.696Z,9.70
2019-04-20T04:08:19.428Z,9.70
2019-04-20T04:10:58.487Z,9.60
2019-04-20T04:13:12.292Z,9.70
2019-04-20T04:15:48.266Z,9.70
2019-04-20T04:18:19.696Z,9.70
2019-04-20T04:20:51.283Z,9.70
2019-04-20T04:23:32.593Z,9.70
2019-04-20T04:26:05.768Z,9.80
2019-04-20T04:28:35.144Z,9.90
2019-04-20T04:31:10.397Z,9.80
2019-04-20T04:36:00.659Z,9.70
2019-04-20T04:38:37.406Z,9.60
2019-04-20T04:41:13.451Z,9.50
2019-04-20T04:43:37.296Z,9.50
2019-04-20T04:45:48.791Z,9.40
2019-04-20T04:48:22.374Z,9.50
2019-04-20T04:50:57.322Z,9.50
2019-04-20T04:53:31.245Z,9.60
2019-04-20T04:55:56.309Z,9.60
2019-04-20T04:58:19.554Z,9.50
2019-04-20T05:00:49.362Z,9.60
2019-04-20T05:03:33.943Z,9.70
2019-04-20T05:06:08.776Z,9.80
2019-04-20T05:08:27.290Z,9.80
2019-04-20T05:10:52.021Z,9.80
2019-04-20T05:13:21.822Z,9.80
2019-04-20T05:16:05.280Z,9.80
2019-04-20T05:18:45.166Z,9.80
2019-04-20T05:21:10.144Z,9.70
2019-04-20T05:23:42.389Z,9.60
2019-04-20T05:26:22.696Z,9.60
2019-04-20T05:28:47.233Z,9.60
2019-04-20T05:31:06.883Z,9.60
2019-04-20T05:33:57.115Z,9.50
2019-04-20T05:36:23.450Z,9.50
2019-04-20T05:38:55.744Z,9.50
2019-04-20T05:41:21.322Z,9.60
2019-04-20T05:43:56.637Z,9.70
2019-04-20T05:46:43.041Z,9.70
2019-04-20T05:49:04.542Z,9.70
2019-04-20T05:51:38.274Z,9.80
2019-04-20T05:54:02.705Z,9.80
2019-04-20T05:56:35.317Z,9.80
2019-04-20T05:58:59.547Z,9.80
2019-04-20T06:01:36.338Z,9.90
2019-04-20T06:03:57.877Z,9.90
2019-04-20T06:06:34.632Z,9.90
2019-04-20T06:11:31.982Z,9.90
2019-04-20T06:13:59.001Z,9.90
2019-04-20T06:16:45.758Z,9.90
2019-04-20T06:19:21.895Z,9.90
2019-04-20T06:21:45.719Z,10.10
2019-04-20T06:24:27.851Z,10.20
2019-04-20T06:26:59.431Z,10.30
2019-04-20T06:29:22.170Z,10.40
2019-04-20T06:31:59.206Z,10.50
2019-04-20T06:37:01.621Z,10.60
2019-04-20T06:42:13.977Z,10.90
2019-04-20T06:55:03.046Z,11.10
2019-04-20T06:57:34.635Z,11.20
2019-04-20T07:00:10.173Z,11.40
2019-04-20T07:02:41.396Z,11.50
2019-04-20T07:05:22.402Z,11.60
2019-04-20T07:07:35.845Z,11.80
2019-04-20T07:10:16.322Z,11.90
2019-04-20T07:12:33.369Z,11.90
2019-04-20T07:14:56.256Z,11.90
2019-04-20T07:17:54.930Z,12.00
2019-04-20T07:20:35.099Z,12.00
2019-04-20T07:23:18.164Z,12.10
2019-04-20T07:25:38.801Z,12.20
2019-04-20T07:28:05.849Z,12.20
2019-04-20T07:30:35.458Z,12.30
2019-04-20T07:33:04.212Z,12.50
2019-04-20T07:35:35.755Z,12.60
2019-04-20T07:40:36.079Z,12.90
2019-04-20T07:43:08.782Z,13.00
2019-04-20T07:45:34.881Z,13.10
2019-04-20T07:48:11.290Z,13.20
2019-04-20T07:50:29.644Z,13.30
2019-04-20T07:53:07.172Z,13.50
2019-04-20T07:55:47.782Z,13.60
2019-04-20T07:58:01.365Z,13.70
2019-04-20T08:00:49.719Z,13.80
2019-04-20T08:03:29.720Z,13.80
2019-04-20T08:05:46.620Z,13.90
2019-04-20T08:08:23.883Z,14.00
2019-04-20T08:10:55.441Z,14.10
2019-04-20T08:13:33.360Z,14.30
2019-04-20T08:15:58.320Z,14.30
2019-04-20T08:20:59.612Z,14.40
2019-04-20T08:23:33.512Z,14.50
2019-04-20T08:25:45.518Z,14.60
2019-04-20T08:28:29.152Z,14.70
2019-04-20T08:31:09.288Z,14.80
2019-04-20T08:34:01.799Z,14.80
2019-04-20T08:36:23.449Z,14.80
2019-04-20T08:41:17.939Z,15.00
2019-04-20T08:43:58.948Z,15.10
2019-04-20T08:46:30.955Z,15.20
2019-04-20T08:48:52.017Z,15.30
2019-04-20T08:51:26.134Z,15.40
2019-04-20T08:53:51.784Z,15.40
2019-04-20T08:56:18.753Z,15.50
2019-04-20T08:58:36.145Z,15.50
2019-04-20T09:01:08.740Z,15.60
2019-04-20T09:03:46.367Z,15.70
2019-04-20T09:06:18.218Z,15.70
2019-04-20T09:08:49.249Z,15.70
2019-04-20T09:11:21.924Z,15.70
2019-04-20T09:13:43.226Z,15.70
2019-04-20T09:16:08.638Z,15.70
2019-04-20T09:18:51.450Z,15.80
2019-04-20T09:21:24.896Z,15.80
2019-04-20T09:23:56.051Z,15.70
2019-04-20T09:26:35.006Z,15.50
2019-04-20T09:28:59.142Z,15.40
2019-04-20T09:31:40.810Z,15.30
2019-04-20T09:34:17.303Z,15.30
2019-04-20T09:36:56.395Z,15.40
2019-04-20T09:39:29.587Z,15.40
2019-04-20T09:42:01.476Z,15.40
2019-04-20T09:44:31.516Z,15.20
2019-04-20T09:47:00.313Z,15.20
2019-04-20T09:49:40.193Z,15.10
2019-04-20T09:52:13.282Z,15.10
2019-04-20T09:54:48.310Z,15.20
2019-04-20T09:57:22.611Z,15.30
2019-04-20T09:59:50.074Z,15.40
2019-04-20T10:02:06.624Z,15.60
2019-04-20T10:04:29.470Z,15.70
2019-04-20T10:07:02.305Z,15.80
2019-04-20T10:09:34.453Z,16.00
2019-04-20T10:11:59.672Z,16.10
2019-04-20T10:14:28.891Z,16.20
2019-04-20T10:16:58.020Z,16.30
2019-04-20T10:19:32.667Z,16.40
2019-04-20T10:21:57.082Z,16.50
2019-04-20T10:24:26.503Z,16.60
2019-04-20T10:26:56.509Z,16.50
2019-04-20T10:29:25.838Z,16.50
2019-04-20T10:31:57.176Z,16.40
2019-04-20T10:34:24.668Z,16.50
2019-04-20T10:36:55.544Z,16.70
2019-04-20T10:39:28.811Z,17.00
2019-04-20T10:42:01.245Z,17.10
2019-04-20T10:44:29.305Z,17.10
2019-04-20T10:46:58.816Z,17.00
2019-04-20T10:49:27.451Z,16.80
2019-04-20T10:51:55.923Z,16.70
2019-04-20T10:54:24.761Z,16.80
2019-04-20T10:56:53.357Z,17.20
2019-04-20T10:59:21.812Z,17.50
2019-04-20T11:01:51.700Z,17.80
2019-04-20T11:04:20.880Z,17.90
2019-04-20T11:06:50.354Z,17.80
2019-04-20T11:09:18.953Z,17.60
2019-04-20T11:11:48.273Z,17.70
2019-04-20T11:14:25.765Z,17.90
2019-04-20T11:16:48.528Z,18.10
2019-04-20T11:19:17.040Z,18.20
2019-04-20T11:21:46.324Z,18.20
2019-04-20T11:24:16.283Z,18.00
2019-04-20T11:26:46.819Z,17.90
2019-04-20T11:29:16.105Z,17.90
2019-04-20T11:31:49.495Z,17.90
2019-04-20T11:34:21.887Z,17.80
2019-04-20T11:36:45.442Z,17.90
2019-04-20T11:39:14.759Z,18.10
2019-04-20T11:41:43.835Z,18.10
2019-04-20T11:44:13.756Z,18.30
2019-04-20T11:46:42.937Z,18.40
2019-04-20T11:49:11.653Z,18.30
2019-04-20T11:51:41.351Z,18.10
2019-04-20T11:54:10.450Z,18.20
2019-04-20T11:56:43.508Z,18.40
2019-04-20T11:59:09.583Z,18.60
2019-04-20T12:01:49.485Z,18.80
2019-04-20T12:04:29.447Z,18.80
2019-04-20T12:06:46.506Z,18.60
2019-04-20T12:09:15.249Z,18.60
2019-04-20T12:11:56.298Z,18.80
2019-04-20T12:14:14.467Z,19.00
2019-04-20T12:16:43.774Z,19.50
2019-04-20T12:19:12.702Z,19.80
2019-04-20T12:21:42.190Z,19.80
2019-04-20T12:24:12.148Z,19.70
2019-04-20T12:26:40.804Z,19.30
2019-04-20T12:29:09.937Z,18.60
2019-04-20T12:31:39.684Z,18.10
2019-04-20T12:34:08.647Z,17.70
2019-04-20T12:36:37.396Z,17.50
2019-04-20T12:39:08.886Z,17.50
2019-04-20T12:41:46.278Z,17.80
2019-04-20T12:44:09.656Z,18.10
2019-04-20T12:46:38.622Z,18.30
2019-04-20T12:49:07.698Z,18.30
2019-04-20T12:51:47.536Z,18.60
2019-04-20T12:54:06.775Z,18.90
2019-04-20T12:56:35.419Z,19.00
2019-04-20T12:59:05.375Z,19.30
2019-04-20T13:01:35.331Z,19.70
2019-04-20T13:04:07.359Z,20.10
2019-04-20T13:06:37.285Z,20.30
2019-04-20T13:09:10.651Z,20.20
2019-04-20T13:11:51.644Z,20.20
2019-04-20T13:14:44.295Z,20.50
2019-04-20T13:17:12.953Z,20.60
2019-04-20T13:19:41.564Z,20.90
2019-04-20T13:22:10.883Z,21.20
2019-04-20T13:24:40.999Z,21.40
2019-04-20T13:27:10.901Z,21.70
2019-04-20T13:29:40.568Z,21.90
2019-04-20T13:32:09.726Z,22.10
2019-04-20T13:34:38.374Z,22.10
2019-04-20T13:37:08.354Z,22.10
2019-04-20T13:39:38.438Z,22.30
2019-04-20T13:42:13.968Z,22.40
2019-04-20T13:44:37.387Z,22.60
2019-04-20T13:47:07.151Z,22.60
2019-04-20T13:49:36.824Z,22.70
2019-04-20T13:52:06.653Z,22.80
2019-04-20T13:54:35.845Z,23.00
2019-04-20T13:57:06.815Z,23.10
2019-04-20T13:59:41.937Z,23.20
2019-04-20T14:02:12.950Z,23.30
2019-04-20T14:04:44.468Z,23.30
2019-04-20T14:07:15.406Z,23.40
2019-04-20T14:09:43.917Z,23.40
2019-04-20T14:12:22.413Z,23.40
2019-04-20T14:14:43.424Z,23.20
2019-04-20T14:17:12.970Z,22.90
2019-04-20T14:19:41.548Z,22.70
2019-04-20T14:22:10.298Z,22.60
2019-04-20T14:24:40.277Z,22.70
2019-04-20T14:27:08.977Z,22.90
2019-04-20T14:29:38.927Z,23.00
2019-04-20T14:32:08.898Z,23.10
2019-04-20T14:34:38.635Z,23.30
2019-04-20T14:37:07.301Z,23.30
2019-04-20T14:39:36.389Z,23.40
2019-04-20T14:42:05.005Z,23.60
2019-04-20T14:44:33.994Z,23.60
2019-04-20T14:47:03.651Z,23.60
2019-04-20T14:49:32.633Z,23.70
2019-04-20T14:52:02.826Z,23.70
2019-04-20T14:54:31.880Z,23.70
2019-04-20T14:57:01.367Z,23.80
2019-04-20T14:59:31.756Z,23.80
2019-04-20T15:02:02.815Z,23.80
2019-04-20T15:04:32.829Z,23.60
2019-04-20T15:07:02.474Z,23.60
2019-04-20T15:09:34.263Z,23.70
2019-04-20T15:12:02.934Z,23.90
2019-04-20T15:14:32.435Z,23.90
2019-04-20T15:17:01.039Z,23.90
2019-04-20T15:19:31.715Z,24.00
2019-04-20T15:22:03.151Z,24.10
2019-04-20T15:24:31.713Z,23.70
2019-04-20T15:27:00.480Z,23.50
2019-04-20T15:29:30.414Z,23.50
2019-04-20T15:31:59.903Z,23.40
2019-04-20T15:34:28.956Z,23.50
2019-04-20T15:36:58.238Z,23.60
2019-04-20T15:39:27.404Z,23.60
2019-04-20T15:41:57.085Z,23.40
2019-04-20T15:44:25.614Z,23.30
2019-04-20T15:46:55.434Z,23.30
2019-04-20T15:49:24.061Z,23.30
2019-04-20T15:51:52.710Z,23.20
2019-04-20T15:54:21.166Z,23.10
2019-04-20T15:56:56.426Z,23.00
2019-04-20T15:59:20.202Z,23.00
2019-04-20T16:01:51.387Z,23.10
2019-04-20T16:04:41.610Z,23.10
2019-04-20T16:07:10.887Z,23.00
2019-04-20T16:09:39.949Z,23.00
2019-04-20T16:12:08.905Z,23.00
2019-04-20T16:14:37.910Z,23.00
2019-04-20T16:17:08.679Z,22.70
2019-04-20T16:19:46.134Z,22.40
2019-04-20T16:22:07.925Z,22.10
2019-04-20T16:24:46.936Z,22.10
2019-04-20T16:27:29.673Z,22.00
2019-04-20T16:29:59.802Z,21.90
2019-04-20T16:32:28.560Z,22.00
2019-04-20T16:34:58.196Z,22.10
2019-04-20T16:37:26.901Z,22.10
2019-04-20T16:39:56.641Z,21.90
2019-04-20T16:42:26.558Z,21.70
2019-04-20T16:44:56.848Z,21.30
2019-04-20T16:47:26.020Z,20.60
2019-04-20T16:49:55.047Z,20.10
2019-04-20T16:52:25.078Z,19.70
2019-04-20T16:54:53.891Z,19.30
2019-04-20T16:57:23.675Z,19.00
2019-04-20T16:59:55.737Z,18.70
2019-04-20T17:02:22.828Z,18.30
2019-04-20T17:04:53.603Z,18.00
2019-04-20T17:07:26.876Z,17.90
2019-04-20T17:09:55.991Z,17.80
2019-04-20T17:12:25.817Z,17.70
2019-04-20T17:14:55.738Z,17.70
2019-04-20T17:17:25.292Z,17.70
2019-04-20T17:19:53.960Z,17.70
2019-04-20T17:22:23.432Z,17.60
2019-04-20T17:24:53.761Z,17.50
2019-04-20T17:27:27.212Z,17.40
2019-04-20T17:30:17.937Z,17.30
2019-04-20T17:32:45.443Z,17.20
2019-04-20T17:35:27.408Z,17.10
2019-04-20T17:37:46.995Z,16.90
2019-04-20T17:40:35.498Z,16.80
2019-04-20T17:42:56.385Z,16.80
2019-04-20T17:45:28.263Z,16.80
2019-04-20T17:48:02.129Z,16.80
2019-04-20T17:50:35.690Z,16.80
2019-04-20T17:53:03.588Z,16.70
2019-04-20T17:58:14.711Z,16.50
2019-04-20T18:00:49.452Z,16.50
2019-04-20T18:03:54.883Z,16.50
2019-04-20T18:06:09.493Z,16.50
2019-04-20T18:08:37.011Z,16.50
2019-04-20T18:10:59.824Z,16.40
2019-04-20T18:13:23.977Z,16.40
2019-04-20T18:16:14.435Z,16.40
2019-04-20T18:18:36.037Z,16.40
2019-04-20T18:21:14.839Z,16.30
2019-04-20T18:23:46.786Z,16.20
2019-04-20T18:26:31.724Z,16.00
2019-04-20T18:29:20.195Z,15.80
2019-04-20T18:31:17.561Z,15.70
2019-04-20T18:33:46.646Z,15.60
2019-04-20T18:36:23.447Z,15.50
2019-04-20T18:38:54.039Z,15.60
2019-04-20T18:41:29.035Z,15.50
2019-04-20T18:43:50.802Z,15.50
2019-04-20T18:46:34.514Z,15.50
2019-04-20T18:49:05.926Z,15.50
2019-04-20T18:51:17.639Z,15.50
2019-04-20T18:53:49.774Z,15.50
2019-04-20T18:56:23.688Z,15.50
2019-04-20T18:58:47.061Z,15.50
2019-04-20T19:01:16.953Z,15.40
2019-04-20T19:03:47.725Z,15.40
2019-04-20T19:06:16.159Z,15.40
2019-04-20T19:08:49.681Z,15.40
2019-04-20T19:11:19.468Z,15.40
2019-04-20T19:13:48.135Z,15.40
2019-04-20T19:16:28.513Z,15.40
2019-04-20T19:19:04.153Z,15.40
2019-04-20T19:21:21.458Z,15.30
2019-04-20T19:23:57.921Z,15.30
2019-04-20T19:26:22.803Z,15.30
2019-04-20T19:28:55.810Z,15.30
2019-04-20T19:31:39.264Z,15.30
2019-04-20T19:34:12.997Z,15.30
2019-04-20T19:36:33.117Z,15.20
2019-04-20T19:39:10.798Z,15.10
2019-04-20T19:41:36.267Z,15.00
2019-04-20T19:44:07.039Z,14.90
2019-04-20T19:46:48.308Z,14.90
2019-04-20T19:49:04.151Z,15.00
2019-04-20T19:51:47.957Z,14.90
2019-04-20T19:54:18.548Z,14.90
2019-04-20T19:56:44.336Z,14.80
2019-04-20T19:59:09.808Z,14.80
2019-04-20T20:01:24.458Z,14.80
2019-04-20T20:03:56.318Z,14.80
2019-04-20T20:06:29.098Z,14.70
2019-04-20T20:08:59.031Z,14.70
2019-04-20T20:11:29.476Z,14.70
2019-04-20T20:13:55.803Z,14.60
2019-04-20T20:16:33.708Z,14.50
2019-04-20T20:19:07.643Z,14.50
2019-04-20T20:21:39.913Z,14.50
2019-04-20T20:23:56.451Z,14.50
2019-04-20T20:26:33.593Z,14.50
2019-04-20T20:29:09.491Z,14.50
2019-04-20T20:31:38.413Z,14.40
2019-04-20T20:34:09.657Z,14.40
2019-04-20T20:36:38.283Z,14.40
2019-04-20T20:39:04.608Z,14.30
2019-04-20T20:41:38.947Z,14.30
2019-04-20T20:44:06.950Z,14.30
2019-04-20T20:46:36.100Z,14.30
2019-04-20T20:49:18.386Z,14.30
2019-04-20T20:51:50.111Z,14.10
2019-04-20T20:54:09.232Z,14.00
2019-04-20T20:56:35.190Z,13.90
2019-04-20T20:59:09.005Z,13.80
2019-04-20T21:01:42.501Z,13.70
2019-04-20T21:04:00.618Z,13.80
2019-04-20T21:06:30.579Z,13.80
2019-04-20T21:09:00.297Z,13.90
2019-04-20T21:11:32.404Z,13.90
2019-04-20T21:13:59.694Z,13.90
2019-04-20T21:16:31.924Z,13.90
2019-04-20T21:19:12.961Z,13.90
2019-04-20T21:21:42.542Z,13.90
2019-04-20T21:24:08.977Z,13.80
2019-04-20T21:26:37.572Z,13.80
2019-04-20T21:29:03.962Z,13.70
2019-04-20T21:31:32.766Z,13.60
2019-04-20T21:34:06.833Z,13.60
2019-04-20T21:36:33.493Z,13.50
2019-04-20T21:39:03.532Z,13.50
2019-04-20T21:41:32.105Z,13.50
2019-04-20T21:44:01.304Z,13.50
2019-04-20T21:46:40.894Z,13.40
2019-04-20T21:49:13.871Z,13.40
2019-04-20T21:51:42.497Z,13.40
2019-04-20T21:54:02.939Z,13.50
2019-04-20T21:56:31.692Z,13.50
2019-04-20T21:59:03.844Z,13.50
2019-04-20T22:01:37.681Z,13.50
2019-04-20T22:04:00.669Z,13.40
2019-04-20T22:06:29.752Z,13.40
2019-04-20T22:09:02.093Z,13.40
2019-04-20T22:11:29.537Z,13.40
2019-04-20T22:14:03.162Z,13.40
2019-04-20T22:16:35.358Z,13.30
2019-04-20T22:19:16.009Z,13.30
2019-04-20T22:21:43.556Z,13.30
2019-04-20T22:24:10.526Z,13.40
2019-04-20T22:26:39.489Z,13.50
2019-04-20T22:29:00.462Z,13.60
2019-04-20T22:31:29.894Z,13.60
2019-04-20T22:34:02.276Z,13.50
2019-04-20T22:36:35.591Z,13.40
2019-04-20T22:39:13.834Z,13.30
2019-04-20T22:41:52.445Z,13.40
2019-04-20T22:44:20.681Z,13.40
2019-04-20T22:46:46.135Z,13.40
2019-04-20T22:49:33.008Z,13.40
2019-04-20T22:51:55.568Z,13.40
2019-04-20T22:54:34.071Z,13.30
2019-04-20T22:56:59.934Z,13.30
2019-04-20T22:59:21.154Z,13.30
2019-04-20T23:01:53.428Z,13.20
2019-04-20T23:04:19.146Z,13.20
2019-04-20T23:06:50.250Z,13.30
2019-04-20T23:09:18.737Z,13.30
2019-04-20T23:11:47.566Z,13.30
2019-04-20T23:14:16.337Z,13.20
2019-04-20T23:16:49.252Z,13.20
2019-04-20T23:19:28.190Z,13.30
2019-04-20T23:21:48.634Z,13.40
2019-04-20T23:24:17.084Z,13.40
2019-04-20T23:26:47.332Z,13.20
2019-04-20T23:29:17.398Z,13.20
2019-04-20T23:31:52.307Z,13.20
2019-04-20T23:34:21.623Z,13.00
2019-04-20T23:36:49.370Z,13.00
2019-04-20T23:39:17.112Z,13.00
2019-04-20T23:41:53.652Z,13.00
2019-04-20T23:44:21.104Z,13.00
2019-04-20T23:47:02.756Z,13.10
2019-04-20T23:49:50.616Z,13.10
2019-04-20T23:52:27.086Z,13.00
2019-04-20T23:54:35.127Z,12.90
2019-04-20T23:57:03.815Z,12.90
2019-04-20T23:59:39.241Z,12.90
